createdAt,value
2018-01-19T00:02:25.010Z,2.15
2018-01-19T00:04:54.538Z,1.95
2018-01-19T00:07:23.331Z,1.90
2018-01-19T00:09:52.061Z,1.58
2018-01-19T00:12:20.821Z,1.10
2018-01-19T00:14:49.629Z,1.75
2018-01-19T00:17:18.365Z,1.52
2018-01-19T00:19:47.132Z,2.00
2018-01-19T00:22:16.734Z,2.35
2018-01-19T00:24:46.178Z,2.10
2018-01-19T00:27:14.967Z,2.05
2018-01-19T00:29:44.038Z,2.40
2018-01-19T00:32:13.442Z,2.30
2018-01-19T00:34:42.269Z,1.50
2018-01-19T00:37:11.044Z,1.12
2018-01-19T00:39:39.795Z,1.35
2018-01-19T00:42:08.737Z,1.60
2018-01-19T00:44:37.579Z,2.03
2018-01-19T00:47:06.376Z,1.67
2018-01-19T00:49:35.141Z,1.33
2018-01-19T00:52:03.945Z,1.30
2018-01-19T00:54:33.466Z,1.48
2018-01-19T00:57:02.304Z,2.05
2018-01-19T00:59:31.128Z,1.62
2018-01-19T01:02:00.710Z,1.10
2018-01-19T01:04:29.543Z,1.62
2018-01-19T01:06:59.117Z,2.20
2018-01-19T01:09:27.907Z,1.42
2018-01-19T01:11:56.658Z,1.37
2018-01-19T01:14:25.445Z,1.02
2018-01-19T01:16:54.176Z,1.65
2018-01-19T01:19:23.713Z,1.37
2018-01-19T01:21:53.242Z,1.00
2018-01-19T01:24:21.982Z,1.23
2018-01-19T01:26:50.403Z,1.02
2018-01-19T01:29:19.956Z,1.10
2018-01-19T01:31:48.721Z,1.15
2018-01-19T01:34:17.494Z,1.12
2018-01-19T01:36:46.312Z,0.90
2018-01-19T01:39:15.082Z,1.30
2018-01-19T01:41:43.890Z,1.10
2018-01-19T01:44:12.688Z,0.77
2018-01-19T01:46:41.415Z,1.10
2018-01-19T01:49:11.936Z,0.80
2018-01-19T01:51:41.474Z,1.08
2018-01-19T01:54:10.386Z,0.90
2018-01-19T01:56:39.214Z,0.70
2018-01-19T01:59:08.018Z,1.33
2018-01-19T02:01:37.573Z,0.90
2018-01-19T02:04:06.378Z,0.82
2018-01-19T02:06:35.141Z,0.80
2018-01-19T02:09:03.761Z,1.40
2018-01-19T02:11:32.637Z,1.00
2018-01-19T02:14:01.474Z,1.45
2018-01-19T02:16:31.054Z,1.15
2018-01-19T02:18:59.829Z,0.90
2018-01-19T02:21:28.666Z,0.85
2018-01-19T02:23:58.175Z,0.95
2018-01-19T02:26:27.763Z,1.10
2018-01-19T02:28:56.317Z,1.27
2018-01-19T02:31:25.092Z,1.02
2018-01-19T02:33:54.040Z,1.10
2018-01-19T02:36:23.589Z,0.75
2018-01-19T02:38:52.347Z,1.08
2018-01-19T02:41:21.142Z,0.95
2018-01-19T02:43:49.953Z,1.00
2018-01-19T02:46:18.754Z,0.75
2018-01-19T02:48:47.569Z,0.85
2018-01-19T02:51:16.344Z,1.20
2018-01-19T02:53:45.128Z,1.08
2018-01-19T02:56:13.973Z,1.10
2018-01-19T02:58:43.494Z,1.10
2018-01-19T03:01:12.274Z,0.73
2018-01-19T03:03:41.084Z,1.80
2018-01-19T03:06:09.870Z,0.95
2018-01-19T03:08:38.643Z,1.00
2018-01-19T03:11:07.446Z,1.35
2018-01-19T03:13:36.221Z,0.80
2018-01-19T03:16:04.958Z,0.70
2018-01-19T03:18:33.716Z,0.80
2018-01-19T03:21:02.478Z,0.88
2018-01-19T03:23:32.052Z,0.80
2018-01-19T03:26:00.795Z,1.12
2018-01-19T03:28:29.597Z,0.73
2018-01-19T03:30:58.433Z,0.93
2018-01-19T03:33:27.185Z,0.70
2018-01-19T03:35:55.983Z,0.90
2018-01-19T03:38:24.794Z,0.80
2018-01-19T03:40:53.631Z,0.90
2018-01-19T03:43:22.431Z,0.80
2018-01-19T03:45:51.199Z,1.00
2018-01-19T03:48:20.008Z,0.82
2018-01-19T03:50:48.799Z,1.10
2018-01-19T03:53:17.549Z,2.30
2018-01-19T03:55:46.134Z,1.55
2018-01-19T03:58:15.677Z,1.55
2018-01-19T04:00:44.410Z,2.37
2018-01-19T04:03:13.223Z,1.45
2018-01-19T04:05:42.631Z,1.50
2018-01-19T04:08:12.139Z,1.37
2018-01-19T04:10:41.698Z,1.90
2018-01-19T04:13:10.434Z,2.50
2018-01-19T04:15:39.227Z,2.50
2018-01-19T04:18:07.950Z,1.20
2018-01-19T04:20:36.726Z,1.33
2018-01-19T04:23:05.485Z,1.23
2018-01-19T04:25:34.207Z,1.00
2018-01-19T04:28:02.974Z,1.05
2018-01-19T04:30:31.778Z,1.00
2018-01-19T04:33:00.182Z,0.90
2018-01-19T04:35:28.914Z,1.40
2018-01-19T04:37:58.378Z,1.10
2018-01-19T04:40:26.915Z,1.73
2018-01-19T04:42:56.441Z,1.30
2018-01-19T04:45:25.179Z,1.12
2018-01-19T04:47:53.706Z,1.30
2018-01-19T04:50:22.422Z,2.08
2018-01-19T04:52:51.136Z,1.55
2018-01-19T04:55:19.845Z,2.10
2018-01-19T04:57:49.184Z,2.05
2018-01-19T05:00:17.936Z,1.45
2018-01-19T05:02:46.673Z,1.90
2018-01-19T05:05:15.394Z,1.70
2018-01-19T05:07:44.102Z,1.52
2018-01-19T05:10:13.619Z,1.87
2018-01-19T05:12:43.171Z,1.70
2018-01-19T05:15:11.902Z,1.02
2018-01-19T05:17:41.386Z,2.10
2018-01-19T05:20:10.144Z,1.75
2018-01-19T05:22:38.843Z,1.83
2018-01-19T05:25:07.592Z,2.10
2018-01-19T05:27:36.381Z,1.85
2018-01-19T05:30:05.148Z,1.67
2018-01-19T05:32:33.887Z,1.73
2018-01-19T05:35:02.650Z,2.17
2018-01-19T05:37:31.367Z,2.12
2018-01-19T05:40:00.126Z,1.15
2018-01-19T05:42:28.896Z,1.30
2018-01-19T05:44:57.731Z,1.60
2018-01-19T05:47:27.371Z,1.35
2018-01-19T05:49:56.118Z,3.00
2018-01-19T05:52:24.927Z,2.85
2018-01-19T05:54:53.816Z,3.35
2018-01-19T05:57:22.556Z,2.90
2018-01-19T05:59:52.158Z,3.75
2018-01-19T06:02:20.976Z,3.42
2018-01-19T06:04:49.760Z,3.12
2018-01-19T06:07:18.462Z,2.60
2018-01-19T06:09:47.246Z,3.28
2018-01-19T06:12:15.982Z,4.10
2018-01-19T06:14:44.690Z,2.95
2018-01-19T06:17:14.175Z,1.80
2018-01-19T06:19:43.117Z,2.00
2018-01-19T06:22:11.883Z,2.67
2018-01-19T06:24:41.419Z,3.10
2018-01-19T06:27:10.150Z,3.17
2018-01-19T06:29:38.928Z,2.45
2018-01-19T06:32:07.718Z,3.70
2018-01-19T06:34:36.422Z,2.80
2018-01-19T06:37:05.220Z,2.55
2018-01-19T06:39:34.763Z,3.37
2018-01-19T06:42:03.526Z,2.10
2018-01-19T06:44:33.072Z,2.60
2018-01-19T06:47:01.799Z,2.30
2018-01-19T06:49:31.198Z,2.95
2018-01-19T06:52:00.071Z,2.72
2018-01-19T06:54:28.763Z,2.90
2018-01-19T06:56:57.512Z,3.67
2018-01-19T06:59:26.979Z,3.33
2018-01-19T07:01:56.371Z,2.80
2018-01-19T07:04:25.083Z,3.67
2018-01-19T07:06:54.614Z,3.78
2018-01-19T07:09:23.295Z,3.83
2018-01-19T07:11:52.050Z,3.75
2018-01-19T07:14:20.748Z,3.85
2018-01-19T07:16:50.246Z,3.40
2018-01-19T07:19:19.737Z,4.43
2018-01-19T07:21:48.573Z,5.20
2018-01-19T07:24:17.325Z,6.05
2018-01-19T07:26:46.004Z,4.87
2018-01-19T07:29:14.741Z,5.22
2018-01-19T07:31:43.454Z,5.22
2018-01-19T07:34:12.214Z,6.72
2018-01-19T07:36:40.946Z,7.28
2018-01-19T07:39:09.614Z,5.85
2018-01-19T07:41:38.399Z,7.03
2018-01-19T07:44:07.201Z,4.07
2018-01-19T07:46:35.970Z,4.78
2018-01-19T07:49:04.429Z,4.32
2018-01-19T07:51:33.910Z,5.00
2018-01-19T07:54:02.650Z,4.40
2018-01-19T07:56:31.469Z,4.70
2018-01-19T07:59:00.229Z,4.33
2018-01-19T08:01:29.008Z,6.45
2018-01-19T08:03:58.585Z,6.95
2018-01-19T08:06:27.387Z,8.82
2018-01-19T08:08:56.118Z,10.50
2018-01-19T08:11:24.933Z,11.70
2018-01-19T08:13:54.470Z,4.90
2018-01-19T08:16:23.912Z,5.28
2018-01-19T08:18:52.634Z,5.20
2018-01-19T08:21:21.365Z,4.85
2018-01-19T08:23:50.044Z,5.10
2018-01-19T08:26:19.514Z,4.32
2018-01-19T08:28:48.197Z,4.35
2018-01-19T08:31:16.918Z,4.10
2018-01-19T08:33:46.390Z,3.90
2018-01-19T08:36:17.807Z,3.92
2018-01-19T08:38:46.549Z,3.90
2018-01-19T08:41:18.642Z,4.05
2018-01-19T08:43:47.963Z,4.50
2018-01-19T08:46:16.687Z,4.05
2018-01-19T08:48:45.465Z,5.82
2018-01-19T08:51:14.192Z,9.88
2018-01-19T08:53:47.109Z,5.45
2018-01-19T08:56:15.842Z,3.97
2018-01-19T08:58:44.522Z,4.00
2018-01-19T09:01:13.065Z,2.80
2018-01-19T09:03:41.880Z,2.47
2018-01-19T09:06:10.640Z,2.37
2018-01-19T09:08:40.161Z,2.33
2018-01-19T09:11:09.109Z,1.98
2018-01-19T09:13:38.637Z,1.90
2018-01-19T09:16:07.385Z,2.62
2018-01-19T09:18:36.110Z,1.87
2018-01-19T09:21:11.629Z,2.17
2018-01-19T09:26:34.261Z,3.62
2018-01-19T09:29:07.568Z,2.67
2018-01-19T09:44:34.826Z,2.53
2018-01-19T09:47:03.539Z,3.12
2018-01-19T09:49:33.051Z,2.72
2018-01-19T09:52:02.833Z,2.05
2018-01-19T09:54:31.578Z,2.55
2018-01-19T09:57:00.118Z,2.17
2018-01-19T09:59:37.502Z,2.95
2018-01-19T10:02:26.810Z,3.00
2018-01-19T10:04:56.441Z,3.10
2018-01-19T10:07:26.622Z,3.50
2018-01-19T10:09:55.440Z,3.03
2018-01-19T10:12:39.169Z,2.70
2018-01-19T10:15:08.020Z,2.95
2018-01-19T10:17:36.738Z,3.62
2018-01-19T10:20:05.501Z,4.90
2018-01-19T10:22:34.243Z,3.60
2018-01-19T10:39:07.500Z,2.20
2018-01-19T10:41:36.320Z,1.67
2018-01-19T10:44:05.429Z,1.60
2018-01-19T10:46:34.559Z,1.42
2018-01-19T10:49:03.165Z,1.62
2018-01-19T10:51:32.851Z,1.45
2018-01-19T10:54:01.700Z,1.40
2018-01-19T10:56:30.455Z,1.35
2018-01-19T10:58:59.117Z,1.25
2018-01-19T11:01:27.837Z,1.85
2018-01-19T11:03:57.304Z,1.60
2018-01-19T11:06:26.070Z,1.30
2018-01-19T11:08:54.807Z,1.67
2018-01-19T11:11:24.277Z,8.48
2018-01-19T11:13:52.973Z,21.65
2018-01-19T11:16:21.627Z,3.33
2018-01-19T11:18:50.272Z,1.90
2018-01-19T11:21:18.972Z,1.30
2018-01-19T11:23:48.616Z,1.60
2018-01-19T11:26:17.271Z,1.00
2018-01-19T11:28:46.714Z,1.35
2018-01-19T11:31:15.352Z,1.50
2018-01-19T11:33:44.803Z,1.23
2018-01-19T11:36:13.513Z,1.50
2018-01-19T11:38:42.172Z,1.48
2018-01-19T11:41:10.865Z,0.88
2018-01-19T11:43:39.753Z,2.58
2018-01-19T11:46:08.414Z,1.95
2018-01-19T11:48:37.057Z,1.40
2018-01-19T11:51:05.821Z,1.15
2018-01-19T11:53:34.493Z,1.20
2018-01-19T11:56:03.152Z,1.60
2018-01-19T11:58:31.828Z,1.27
2018-01-19T12:01:01.280Z,1.35
2018-01-19T12:03:30.125Z,1.00
2018-01-19T12:05:59.475Z,1.15
2018-01-19T12:08:28.178Z,1.35
2018-01-19T12:10:56.888Z,1.20
2018-01-19T12:13:25.541Z,1.45
2018-01-19T12:15:54.249Z,1.35
2018-01-19T12:18:22.930Z,1.40
2018-01-19T12:20:51.597Z,2.30
2018-01-19T12:23:20.280Z,2.85
2018-01-19T12:25:49.062Z,1.40
2018-01-19T12:28:18.493Z,1.70
2018-01-19T12:30:47.181Z,1.80
2018-01-19T12:33:15.890Z,1.90
2018-01-19T12:35:44.554Z,1.45
2018-01-19T12:38:13.229Z,1.83
2018-01-19T12:40:41.945Z,1.75
2018-01-19T12:43:10.830Z,1.40
2018-01-19T12:45:39.543Z,1.30
2018-01-19T12:48:09.014Z,1.25
2018-01-19T12:50:37.661Z,2.08
2018-01-19T12:53:06.358Z,2.10
2018-01-19T12:55:35.022Z,1.10
2018-01-19T12:58:03.712Z,1.50
2018-01-19T13:00:32.373Z,1.33
2018-01-19T13:03:01.064Z,1.60
2018-01-19T13:05:29.967Z,1.80
2018-01-19T13:07:59.424Z,1.30
2018-01-19T13:10:28.165Z,1.30
2018-01-19T13:12:56.840Z,1.87
2018-01-19T13:15:26.284Z,1.70
2018-01-19T13:17:55.017Z,1.20
2018-01-19T13:20:23.698Z,2.90
2018-01-19T13:22:52.424Z,1.00
2018-01-19T13:25:21.225Z,0.88
2018-01-19T13:27:49.905Z,0.95
2018-01-19T13:30:18.282Z,0.93
2018-01-19T13:32:47.065Z,1.23
2018-01-19T13:35:15.814Z,0.90
2018-01-19T13:37:44.539Z,1.20
2018-01-19T13:40:14.033Z,1.92
2018-01-19T13:42:43.541Z,1.00
2018-01-19T13:45:12.983Z,1.60
2018-01-19T13:47:41.716Z,6.10
2018-01-19T13:50:10.468Z,1.60
2018-01-19T13:52:39.180Z,1.85
2018-01-19T13:55:07.924Z,2.60
2018-01-19T13:57:36.637Z,2.10
2018-01-19T14:00:05.009Z,1.80
2018-01-19T14:02:33.718Z,1.90
2018-01-19T14:05:02.442Z,1.00
2018-01-19T14:07:31.914Z,1.35
2018-01-19T14:10:00.603Z,1.10
2018-01-19T14:12:29.360Z,1.85
2018-01-19T14:14:58.236Z,1.85
2018-01-19T14:17:26.957Z,1.67
2018-01-19T14:19:55.671Z,0.93
2018-01-19T14:22:24.458Z,1.75
2018-01-19T14:24:53.930Z,1.10
2018-01-19T14:27:22.648Z,0.77
2018-01-19T14:29:51.370Z,0.50
2018-01-19T14:32:20.060Z,0.90
2018-01-19T14:34:48.766Z,1.33
2018-01-19T14:37:17.616Z,1.40
2018-01-19T14:39:47.112Z,1.50
2018-01-19T14:42:15.829Z,1.60
2018-01-19T14:44:44.570Z,1.52
2018-01-19T14:47:13.245Z,2.60
2018-01-19T14:49:41.968Z,2.33
2018-01-19T14:52:10.711Z,2.05
2018-01-19T14:54:39.435Z,2.12
2018-01-19T14:57:08.158Z,2.65
2018-01-19T14:59:36.944Z,2.78
2018-01-19T15:02:06.449Z,1.98
2018-01-19T15:04:35.151Z,3.22
2018-01-19T15:07:03.925Z,2.42
2018-01-19T15:09:32.666Z,2.00
2018-01-19T15:12:01.370Z,1.33
2018-01-19T15:14:30.173Z,1.90
2018-01-19T15:16:59.666Z,1.12
2018-01-19T15:19:28.361Z,0.73
2018-01-19T15:21:57.896Z,1.02
2018-01-19T15:24:26.591Z,1.15
2018-01-19T15:26:55.295Z,1.15
2018-01-19T15:29:24.038Z,1.23
2018-01-19T15:31:53.536Z,0.73
2018-01-19T15:34:22.229Z,0.68
2018-01-19T15:36:51.029Z,1.20
2018-01-19T15:39:20.510Z,4.95
2018-01-19T15:41:49.199Z,0.90
2018-01-19T15:44:17.938Z,2.05
2018-01-19T15:46:46.688Z,2.47
2018-01-19T15:49:15.353Z,1.70
2018-01-19T15:51:43.902Z,2.95
2018-01-19T15:54:12.874Z,2.40
2018-01-19T15:56:41.608Z,5.22
2018-01-19T15:59:10.431Z,4.97
2018-01-19T16:01:39.121Z,3.92
2018-01-19T16:04:07.835Z,2.50
2018-01-19T16:06:36.617Z,1.25
2018-01-19T16:09:04.677Z,1.10
2018-01-19T16:11:33.966Z,1.65
2018-01-19T16:14:03.474Z,0.75
2018-01-19T16:16:32.775Z,0.62
2018-01-19T16:19:02.258Z,1.55
2018-01-19T16:21:31.033Z,7.15
2018-01-19T16:23:59.736Z,5.25
2018-01-19T16:26:28.669Z,6.28
2018-01-19T16:28:57.399Z,5.10
2018-01-19T16:31:26.173Z,4.50
2018-01-19T16:33:54.909Z,5.50
2018-01-19T16:36:24.423Z,5.20
2018-01-19T16:38:53.285Z,3.50
2018-01-19T16:41:21.961Z,1.98
2018-01-19T16:43:50.485Z,2.60
2018-01-19T16:46:19.173Z,1.83
2018-01-19T16:48:48.674Z,1.58
2018-01-19T16:51:18.177Z,1.45
2018-01-19T16:53:46.863Z,2.60
2018-01-19T16:56:16.378Z,2.33
2018-01-19T16:58:45.853Z,2.33
2018-01-19T17:01:14.549Z,1.48
2018-01-19T17:03:43.254Z,2.10
2018-01-19T17:06:11.917Z,1.40
2018-01-19T17:08:40.666Z,1.87
2018-01-19T17:11:09.386Z,1.92
2018-01-19T17:13:38.129Z,2.00
2018-01-19T17:16:06.880Z,2.42
2018-01-19T17:18:35.606Z,6.25
2018-01-19T17:21:04.139Z,7.28
2018-01-19T17:23:32.870Z,7.32
2018-01-19T17:26:01.590Z,5.75
2018-01-19T17:28:30.305Z,6.97
2018-01-19T17:30:58.982Z,8.85
2018-01-19T17:33:27.693Z,8.20
2018-01-19T17:35:57.201Z,8.52
2018-01-19T17:38:26.629Z,8.13
2018-01-19T17:40:55.327Z,6.55
2018-01-19T17:43:24.049Z,8.05
2018-01-19T17:45:52.794Z,8.88
2018-01-19T17:48:21.534Z,8.85
2018-01-19T17:50:51.132Z,6.30
2018-01-19T17:53:19.822Z,6.57
2018-01-19T17:55:48.525Z,7.28
2018-01-19T17:58:17.201Z,6.20
2018-01-19T18:00:45.873Z,6.40
2018-01-19T18:03:16.828Z,6.45
2018-01-19T18:05:45.489Z,6.60
2018-01-19T18:08:14.161Z,6.20
2018-01-19T18:10:42.869Z,6.18
2018-01-19T18:13:11.525Z,5.28
2018-01-19T18:15:40.213Z,4.50
2018-01-19T18:18:08.897Z,4.82
2018-01-19T18:20:37.592Z,4.78
2018-01-19T18:23:06.253Z,7.60
2018-01-19T18:25:35.760Z,8.63
2018-01-19T18:28:05.189Z,9.45
2018-01-19T18:30:33.853Z,8.48
2018-01-19T18:33:03.375Z,8.40
2018-01-19T18:35:32.043Z,7.90
2018-01-19T18:38:00.733Z,8.32
2018-01-19T18:40:30.434Z,7.10
2018-01-19T18:42:59.089Z,7.22
2018-01-19T18:45:27.742Z,6.05
2018-01-19T18:47:56.436Z,6.22
2018-01-19T18:50:25.132Z,6.95
2018-01-19T18:52:53.794Z,5.68
2018-01-19T18:55:23.333Z,6.18
2018-01-19T18:57:52.142Z,8.25
2018-01-19T19:00:20.830Z,8.52
2018-01-19T19:02:49.557Z,9.00
2018-01-19T19:05:19.005Z,9.85
2018-01-19T19:07:47.708Z,8.15
2018-01-19T19:10:16.422Z,8.23
2018-01-19T19:12:45.849Z,8.60
2018-01-19T19:15:14.523Z,7.80
2018-01-19T19:17:43.218Z,7.68
2018-01-19T19:20:11.866Z,6.95
2018-01-19T19:22:40.776Z,5.80
2018-01-19T19:25:10.311Z,9.00
2018-01-19T19:27:39.216Z,10.02
2018-01-19T19:30:07.882Z,17.00
2018-01-19T19:32:36.438Z,23.77
2018-01-19T19:35:05.707Z,15.25
2018-01-19T19:37:34.566Z,7.87
2018-01-19T19:40:03.373Z,6.97
2018-01-19T19:42:32.036Z,6.53
2018-01-19T19:45:00.726Z,6.85
2018-01-19T19:47:29.418Z,7.35
2018-01-19T19:49:58.089Z,10.73
2018-01-19T19:52:26.842Z,10.25
2018-01-19T19:54:55.633Z,7.97
2018-01-19T19:57:24.338Z,9.30
2018-01-19T19:59:53.774Z,9.15
2018-01-19T20:02:22.514Z,9.90
2018-01-19T20:04:51.177Z,8.68
2018-01-19T20:07:19.869Z,9.45
2018-01-19T20:09:48.680Z,7.75
2018-01-19T20:12:17.342Z,5.50
2018-01-19T20:14:46.017Z,5.10
2018-01-19T20:17:14.734Z,5.05
2018-01-19T20:19:43.402Z,4.75
2018-01-19T20:22:12.094Z,5.20
2018-01-19T20:24:40.834Z,7.95
2018-01-19T20:27:09.574Z,9.20
2018-01-19T20:29:38.325Z,11.75
2018-01-19T20:32:07.020Z,17.23
2018-01-19T20:34:36.510Z,20.48
2018-01-19T20:37:05.230Z,13.38
2018-01-19T20:39:33.938Z,11.65
2018-01-19T20:42:02.809Z,11.15
2018-01-19T20:44:31.533Z,7.62
2018-01-19T20:47:01.112Z,5.72
2018-01-19T20:49:29.843Z,9.10
2018-01-19T20:51:59.340Z,8.90
2018-01-19T20:54:28.770Z,9.48
2018-01-19T20:56:57.492Z,10.38
2018-01-19T20:59:26.285Z,12.00
2018-01-19T21:01:54.991Z,14.00
2018-01-19T21:04:23.754Z,10.00
2018-01-19T21:06:52.340Z,10.88
2018-01-19T21:09:20.923Z,12.07
2018-01-19T21:11:49.641Z,11.88
2018-01-19T21:14:18.358Z,19.60
2018-01-19T21:16:47.026Z,21.95
2018-01-19T21:19:15.726Z,22.35
2018-01-19T21:21:45.253Z,19.85
2018-01-19T21:24:14.125Z,19.08
2018-01-19T21:26:42.809Z,21.05
2018-01-19T21:29:12.321Z,27.48
2018-01-19T21:31:41.077Z,14.52
2018-01-19T21:34:10.539Z,13.77
2018-01-19T21:36:38.952Z,10.90
2018-01-19T21:39:07.713Z,10.98
2018-01-19T21:41:36.614Z,15.20
2018-01-19T21:44:05.338Z,16.52
2018-01-19T21:46:34.029Z,16.52
2018-01-19T21:49:02.779Z,12.23
2018-01-19T21:51:31.506Z,9.52
2018-01-19T21:54:00.276Z,10.05
2018-01-19T21:56:29.138Z,10.25
2018-01-19T21:58:57.801Z,8.77
2018-01-19T22:01:26.546Z,9.38
2018-01-19T22:03:55.444Z,10.77
2018-01-19T22:06:24.151Z,10.30
2018-01-19T22:08:53.665Z,8.80
2018-01-19T22:11:23.094Z,8.02
2018-01-19T22:13:51.770Z,7.68
2018-01-19T22:16:20.458Z,6.03
2018-01-19T22:18:49.134Z,6.60
2018-01-19T22:21:18.593Z,10.38
2018-01-19T22:23:47.351Z,7.70
2018-01-19T22:26:16.025Z,5.93
2018-01-19T22:28:44.770Z,4.65
2018-01-19T22:31:13.505Z,6.60
2018-01-19T22:33:44.523Z,10.20
2018-01-19T22:36:13.034Z,7.03
2018-01-19T22:38:41.705Z,7.75
2018-01-19T22:41:10.401Z,9.18
2018-01-19T22:43:39.145Z,9.88
2018-01-19T22:46:07.825Z,8.23
2018-01-19T22:48:36.562Z,10.98
2018-01-19T22:51:05.252Z,12.90
2018-01-19T22:53:33.958Z,14.73
2018-01-19T22:56:02.809Z,20.80
2018-01-19T22:58:32.297Z,20.77
2018-01-19T23:01:01.029Z,15.30
2018-01-19T23:03:29.697Z,11.35
2018-01-19T23:05:58.360Z,12.95
2018-01-19T23:08:27.088Z,13.68
2018-01-19T23:10:55.819Z,10.75
2018-01-19T23:13:24.557Z,9.40
2018-01-19T23:15:53.434Z,6.18
2018-01-19T23:18:22.118Z,7.50
2018-01-19T23:20:51.549Z,7.05
2018-01-19T23:23:20.232Z,5.65
2018-01-19T23:25:48.949Z,4.28
2018-01-19T23:28:18.377Z,6.00
2018-01-19T23:30:46.758Z,5.28
2018-01-19T23:33:15.437Z,6.57
2018-01-19T23:35:43.924Z,13.75
2018-01-19T23:38:12.634Z,11.63
2018-01-19T23:40:41.496Z,15.20
2018-01-19T23:43:10.301Z,13.45
2018-01-19T23:45:39.028Z,10.45
2018-01-19T23:48:07.718Z,9.40
2018-01-19T23:50:36.388Z,9.63
2018-01-19T23:53:05.870Z,18.37
2018-01-19T23:55:35.309Z,15.00
2018-01-19T23:58:04.260Z,24.20
